Time;durP1;ratioP1;P1;durP2;ratioP2;P2;SDS_P1;SDS_P2;PMS_P1;PMS_P2;Temp;Humidity;BMP_temperature;BMP_pressure;BME280_temperature;BME280_humidity;BME280_pressure;Samples;Min_cycle;Max_cycle;Signal;HPM_P1;HPM_P2
2021/10/27 00:00:21;;;;;;;36.70;27.35;;;;;;;3.87;100.00;96967.16;1041237;28;20319;-49
2021/10/27 00:00:52;;;;;;;43.65;30.67;;;;;;;3.87;100.00;96968.91;1040917;28;20483;-49
2021/10/27 00:01:23;;;;;;;39.60;28.63;;;;;;;3.86;100.00;96969.78;1040866;28;20265;-49
2021/10/27 00:01:54;;;;;;;39.92;29.52;;;;;;;3.86;100.00;96967.19;1041077;28;20022;-49
2021/10/27 00:02:25;;;;;;;42.30;28.65;;;;;;;3.87;100.00;96966.31;1040902;28;20093;-51
2021/10/27 00:02:55;;;;;;;36.17;27.50;;;;;;;3.87;100.00;96969.75;1040545;28;20018;-50
2021/10/27 00:03:26;;;;;;;35.95;27.20;;;;;;;3.88;100.00;96971.44;1040845;28;20257;-49
2021/10/27 00:03:57;;;;;;;34.92;26.65;;;;;;;3.88;100.00;96973.19;1040982;28;20021;-49
2021/10/27 00:04:28;;;;;;;42.22;28.05;;;;;;;3.87;100.00;96966.31;1041239;28;20085;-48
2021/10/27 00:04:59;;;;;;;37.70;27.85;;;;;;;3.87;100.00;96967.16;1040984;28;20029;-48
2021/10/27 00:05:30;;;;;;;32.67;25.92;;;;;;;3.88;100.00;96974.03;1041122;28;20256;-48
2021/10/27 00:06:01;;;;;;;45.33;30.27;;;;;;;3.89;100.00;96970.56;1041164;28;20741;-50
2021/10/27 00:06:32;;;;;;;32.83;24.60;;;;;;;3.90;100.00;96971.38;1041142;28;20045;-49
2021/10/27 00:07:03;;;;;;;43.92;32.38;;;;;;;3.88;100.00;96971.44;1040873;28;20029;-50
2021/10/27 00:07:34;;;;;;;36.38;27.92;;;;;;;3.87;100.00;96968.91;1040798;28;20237;-50
2021/10/27 00:08:04;;;;;;;42.30;28.88;;;;;;;3.86;100.00;96965.44;1040892;28;20276;-48
2021/10/27 00:08:35;;;;;;;40.17;29.52;;;;;;;3.85;100.00;96963.75;1040958;28;20540;-48
2021/10/27 00:09:06;;;;;;;38.47;26.88;;;;;;;3.88;100.00;96973.19;1041114;28;20068;-49
2021/10/27 00:09:36;;;;;;;34.78;26.67;;;;;;;3.86;100.00;96970.63;1041033;28;20022;-48
2021/10/27 00:10:08;;;;;;;32.75;25.33;;;;;;;3.88;100.00;96973.19;1041304;28;20507;-49
2021/10/27 00:10:39;;;;;;;33.13;25.00;;;;;;;3.86;100.00;96972.38;1041427;28;20256;-49
2021/10/27 00:11:09;;;;;;;30.63;24.00;;;;;;;3.88;100.00;96968.00;1041049;28;20611;-48
2021/10/27 00:11:40;;;;;;;37.50;26.33;;;;;;;3.90;100.00;96968.81;1040843;28;20026;-49
2021/10/27 00:12:11;;;;;;;32.70;26.88;;;;;;;3.91;100.00;96965.31;1041229;28;20101;-49
2021/10/27 00:12:42;;;;;;;34.50;26.45;;;;;;;3.91;100.00;96967.06;1041078;28;20022;-48
2021/10/27 00:13:13;;;;;;;34.35;25.00;;;;;;;3.94;100.00;96973.03;1040908;28;20347;-50
2021/10/27 00:13:44;;;;;;;36.83;26.98;;;;;;;3.96;100.00;96968.66;1045053;28;20036;-49
2021/10/27 00:14:14;;;;;;;31.20;24.30;;;;;;;3.96;100.00;96965.19;1045134;28;20025;-49
2021/10/27 00:14:45;;;;;;;29.48;23.55;;;;;;;3.98;100.00;96963.41;1045044;28;20021;-49
2021/10/27 00:15:16;;;;;;;30.17;25.25;;;;;;;3.98;100.00;96964.28;1044531;28;20063;-49
2021/10/27 00:15:46;;;;;;;37.83;27.45;;;;;;;3.95;100.00;96960.91;1040992;28;20072;-49
2021/10/27 00:16:17;;;;;;;33.50;25.92;;;;;;;3.97;100.00;96956.53;1040880;28;20036;-49
2021/10/27 00:16:48;;;;;;;33.50;25.67;;;;;;;3.97;100.00;96959.13;1041122;28;20027;-49
2021/10/27 00:17:19;;;;;;;32.60;24.77;;;;;;;3.95;100.00;96963.50;1041056;28;20068;-49
2021/10/27 00:17:49;;;;;;;32.20;25.67;;;;;;;3.95;100.00;96964.34;1040963;28;20040;-49
2021/10/27 00:18:20;;;;;;;36.63;26.33;;;;;;;3.97;100.00;96965.16;1041046;28;20104;-48
2021/10/27 00:18:51;;;;;;;31.05;25.58;;;;;;;3.98;100.00;96960.81;1041220;28;20069;-49
2021/10/27 00:19:22;;;;;;;36.50;25.90;;;;;;;3.96;100.00;96963.47;1040982;28;20021;-49
2021/10/27 00:19:52;;;;;;;36.80;25.10;;;;;;;3.96;100.00;96968.66;1041066;28;20092;-49
2021/10/27 00:20:23;;;;;;;35.78;25.23;;;;;;;3.92;100.00;96959.22;1041101;28;20092;-50
2021/10/27 00:20:54;;;;;;;30.92;24.83;;;;;;;3.97;100.00;96966.91;1041206;28;20025;-50
2021/10/27 00:21:24;;;;;;;36.35;25.73;;;;;;;3.95;100.00;96974.72;1040652;28;20044;-48
2021/10/27 00:21:55;;;;;;;31.20;22.98;;;;;;;3.94;100.00;96967.84;1040500;28;20017;-48
2021/10/27 00:22:26;;;;;;;33.75;24.52;;;;;;;3.93;100.00;96970.47;1041005;28;20074;-50
2021/10/27 00:22:57;;;;;;;28.60;23.13;;;;;;;3.93;100.00;96970.47;1040798;28;20430;-49
2021/10/27 00:23:27;;;;;;;34.50;25.27;;;;;;;3.91;100.00;96973.09;1041092;28;20052;-50
2021/10/27 00:23:58;;;;;;;29.08;22.83;;;;;;;3.92;100.00;96973.94;1040805;28;20271;-49
2021/10/27 00:24:29;;;;;;;34.00;24.73;;;;;;;3.95;100.00;96973.88;1040952;28;20079;-49
2021/10/27 00:24:59;;;;;;;34.13;24.85;;;;;;;3.98;100.00;96972.06;1040890;28;20108;-49
2021/10/27 00:25:30;;;;;;;29.60;23.17;;;;;;;3.98;100.00;96974.66;1041101;28;20032;-48
2021/10/27 00:26:01;;;;;;;31.60;24.40;;;;;;;3.98;100.00;96974.66;1041037;28;20029;-48
2021/10/27 00:26:31;;;;;;;35.67;26.15;;;;;;;3.98;100.00;96973.78;1041140;28;20075;-50
2021/10/27 00:27:02;;;;;;;32.20;24.80;;;;;;;3.97;100.00;96970.34;1041056;28;20510;-49
2021/10/27 00:27:33;;;;;;;34.47;26.08;;;;;;;3.94;100.00;96970.44;1041184;28;20021;-48
2021/10/27 00:28:04;;;;;;;36.55;25.02;;;;;;;3.96;100.00;96971.25;1041031;28;20422;-50
2021/10/27 00:28:35;;;;;;;31.30;23.20;;;;;;;3.98;100.00;96977.25;1041263;28;20383;-49
2021/10/27 00:29:06;;;;;;;25.17;21.02;;;;;;;4.02;100.00;96975.41;1041008;28;20260;-49
2021/10/27 00:29:36;;;;;;;35.95;27.05;;;;;;;4.02;100.00;96973.66;1041217;28;20334;-47
2021/10/27 00:30:09;;;;;;;37.22;26.90;;;;;;;3.98;100.00;96978.97;1041029;28;20022;-49
2021/10/27 00:30:40;;;;;;;31.83;25.23;;;;;;;4.00;100.00;96974.59;1041121;28;20299;-48
2021/10/27 00:31:11;;;;;;;41.45;28.58;;;;;;;3.99;100.00;96978.91;1041119;28;20262;-48
2021/10/27 00:31:41;;;;;;;31.85;23.95;;;;;;;3.97;100.00;96972.09;1040858;28;20705;-49
2021/10/27 00:32:12;;;;;;;29.65;23.90;;;;;;;3.99;100.00;96972.88;1040898;28;20053;-49
2021/10/27 00:32:43;;;;;;;29.48;23.83;;;;;;;3.97;100.00;96975.53;1041084;28;20049;-48
2021/10/27 00:33:13;;;;;;;36.97;25.08;;;;;;;4.00;100.00;96972.00;1040753;28;20027;-49
2021/10/27 00:33:45;;;;;;;38.85;26.27;;;;;;;3.99;100.00;96971.13;1041015;28;20144;-48
2021/10/27 00:34:15;;;;;;;36.15;26.15;;;;;;;3.98;100.00;96977.25;1041044;28;20079;-49
2021/10/27 00:34:46;;;;;;;32.78;24.05;;;;;;;3.99;100.00;96976.31;1041024;28;20331;-50
2021/10/27 00:35:17;;;;;;;34.55;24.77;;;;;;;3.99;100.00;96973.72;1041187;28;20045;-49
2021/10/27 00:35:48;;;;;;;38.78;25.92;;;;;;;3.98;100.00;96978.97;1041075;28;20246;-47
2021/10/27 00:36:19;;;;;;;38.85;27.48;;;;;;;3.95;100.00;96977.31;1040921;28;20049;-49
2021/10/27 00:36:50;;;;;;;35.78;26.35;;;;;;;3.94;100.00;96975.63;1040909;28;20351;-49
2021/10/27 00:37:20;;;;;;;42.28;27.35;;;;;;;3.93;100.00;96979.09;1041042;28;20256;-49
2021/10/27 00:37:51;;;;;;;33.65;24.88;;;;;;;3.93;100.00;96979.09;1041151;28;20123;-48
2021/10/27 00:38:22;;;;;;;33.97;24.13;;;;;;;3.95;100.00;96973.88;1040933;28;20056;-49
2021/10/27 00:38:52;;;;;;;35.55;25.38;;;;;;;3.95;100.00;96974.72;1040889;28;20458;-48
2021/10/27 00:39:23;;;;;;;34.58;24.77;;;;;;;3.95;100.00;96973.88;1041267;28;20075;-49
2021/10/27 00:39:54;;;;;;;30.45;23.30;;;;;;;3.94;100.00;96978.22;1041220;28;20464;-49
2021/10/27 00:40:25;;;;;;;40.83;25.95;;;;;;;3.92;100.00;96982.56;1040930;28;20029;-48
2021/10/27 00:40:55;;;;;;;37.47;26.13;;;;;;;3.91;100.00;96983.47;1041051;28;20431;-48
2021/10/27 00:41:26;;;;;;;36.67;27.38;;;;;;;3.89;100.00;96980.09;1040996;28;20022;-49
2021/10/27 00:41:57;;;;;;;38.22;25.50;;;;;;;3.89;100.00;96977.50;1041089;28;20104;-49
2021/10/27 00:42:28;;;;;;;30.02;23.67;;;;;;;3.91;100.00;96978.28;1040998;28;20036;-49
2021/10/27 00:42:58;;;;;;;32.53;23.95;;;;;;;3.92;100.00;96974.78;1040904;28;20021;-49
2021/10/27 00:43:29;;;;;;;38.13;26.48;;;;;;;3.92;100.00;96979.97;1040902;28;20097;-49
2021/10/27 00:44:00;;;;;;;36.80;26.75;;;;;;;3.91;100.00;96973.09;1040924;28;20474;-49
2021/10/27 00:44:31;;;;;;;41.40;27.27;;;;;;;3.88;100.00;96980.97;1041110;28;20013;-50
2021/10/27 00:45:01;;;;;;;35.85;25.92;;;;;;;3.85;100.00;96981.06;1040668;28;20029;-48
2021/10/27 00:45:32;;;;;;;33.33;25.10;;;;;;;3.76;100.00;96960.56;1041166;28;20063;-49
2021/10/27 00:46:03;;;;;;;32.53;24.05;;;;;;;3.88;100.00;96980.97;1040924;28;20475;-49
2021/10/27 00:46:34;;;;;;;39.95;27.55;;;;;;;3.87;100.00;96979.28;1041106;28;20024;-49
2021/10/27 00:47:07;;;;;;;32.78;24.23;;;;;;;3.88;100.00;96981.78;1040923;28;20535;-48
2021/10/27 00:47:38;;;;;;;34.80;24.33;;;;;;;3.87;100.00;96982.72;1041140;28;20299;-49
2021/10/27 00:48:08;;;;;;;36.13;26.55;;;;;;;3.85;100.00;96983.66;1040800;28;20583;-49
2021/10/27 00:48:39;;;;;;;32.13;23.55;;;;;;;3.80;100.00;96982.91;1040948;28;20021;-49
2021/10/27 00:49:10;;;;;;;36.80;24.73;;;;;;;3.78;100.00;96980.34;1040844;28;20025;-49
2021/10/27 00:49:43;;;;;;;30.98;22.45;;;;;;;3.78;100.00;96976.94;1041119;28;20076;-49
2021/10/27 00:50:13;;;;;;;40.35;27.20;;;;;;;3.79;100.00;96983.78;1041071;28;20765;-48
2021/10/27 00:50:44;;;;;;;38.72;27.15;;;;;;;3.77;100.00;96983.81;1041018;28;20255;-48
2021/10/27 00:51:15;;;;;;;32.40;24.63;;;;;;;3.76;100.00;96983.91;1040822;28;20089;-49
2021/10/27 00:51:46;;;;;;;31.27;24.02;;;;;;;3.75;100.00;96977.00;1040967;28;20025;-48
2021/10/27 00:52:17;;;;;;;36.25;25.75;;;;;;;3.74;100.00;96977.91;1041056;28;20025;-49
2021/10/27 00:52:48;;;;;;;44.53;28.58;;;;;;;3.74;100.00;96983.09;1040971;28;20311;-49
2021/10/27 00:53:19;;;;;;;39.67;27.63;;;;;;;3.71;100.00;96984.00;1040865;28;20665;-50
2021/10/27 00:53:50;;;;;;;35.67;26.05;;;;;;;3.72;100.00;96984.84;1041128;28;20335;-48
2021/10/27 00:54:22;;;;;;;35.53;25.27;;;;;;;3.72;100.00;96980.53;1044739;28;20441;-49
2021/10/27 00:54:53;;;;;;;43.05;27.40;;;;;;;3.73;100.00;96982.22;1044480;28;20025;-49
2021/10/27 00:55:24;;;;;;;44.83;27.25;;;;;;;3.74;100.00;96983.09;1040248;28;20355;-49
2021/10/27 00:55:55;;;;;;;42.15;27.77;;;;;;;3.72;100.00;96980.53;1040947;28;20024;-48
2021/10/27 00:56:26;;;;;;;35.50;24.40;;;;;;;3.74;100.00;96983.94;1036606;28;20355;-49
2021/10/27 00:56:58;;;;;;;31.73;24.50;;;;;;;3.75;100.00;96985.63;1032964;28;20102;-49
2021/10/27 00:57:29;;;;;;;28.90;21.95;;;;;;;3.77;100.00;96985.56;1036516;28;20014;-47
2021/10/27 00:57:59;;;;;;;32.45;25.02;;;;;;;3.77;100.00;96978.66;1036962;28;20249;-49
2021/10/27 00:58:30;;;;;;;33.03;23.15;;;;;;;3.77;100.00;96983.00;1040865;28;20485;-49
2021/10/27 00:59:01;;;;;;;31.92;22.65;;;;;;;3.81;100.00;96982.88;1040807;28;20116;-49
2021/10/27 00:59:33;;;;;;;34.03;24.05;;;;;;;3.77;100.00;96978.66;1040439;28;20086;-48
2021/10/27 01:00:06;;;;;;;29.02;22.90;;;;;;;3.77;100.00;96977.81;1040533;28;20019;-50
2021/10/27 01:00:37;;;;;;;30.83;22.23;;;;;;;3.75;100.00;96980.44;1040607;28;20259;-48
2021/10/27 01:01:08;;;;;;;30.33;22.20;;;;;;;3.75;100.00;96977.00;1040728;28;20631;-49
2021/10/27 01:01:38;;;;;;;36.08;24.70;;;;;;;3.75;100.00;96970.06;1040619;28;20025;-49
2021/10/27 01:02:10;;;;;;;36.92;25.77;;;;;;;3.76;100.00;96976.13;1041137;28;20467;-48
2021/10/27 01:02:41;;;;;;;30.27;23.08;;;;;;;3.72;100.00;96971.88;1040894;28;20021;-49
2021/10/27 01:03:12;;;;;;;40.50;26.10;;;;;;;3.70;100.00;96977.13;1040880;28;20309;-49
2021/10/27 01:03:42;;;;;;;41.65;27.25;;;;;;;3.64;100.00;96977.28;1040851;28;20100;-49
2021/10/27 01:04:13;;;;;;;37.97;26.67;;;;;;;3.61;100.00;96975.63;1041060;28;20105;-49
2021/10/27 01:04:45;;;;;;;35.20;26.23;;;;;;;3.60;100.00;96976.50;1040690;28;20472;-49
2021/10/27 01:05:16;;;;;;;27.63;22.02;;;;;;;3.61;100.00;96975.63;1040948;28;20493;-48
2021/10/27 01:05:47;;;;;;;42.88;26.67;;;;;;;3.60;100.00;96979.09;1040957;28;20267;-48
2021/10/27 01:06:18;;;;;;;32.15;23.90;;;;;;;3.58;100.00;96975.69;1041011;28;20025;-48
2021/10/27 01:06:48;;;;;;;33.17;23.08;;;;;;;3.59;100.00;96973.97;1040744;28;20430;-49
2021/10/27 01:07:19;;;;;;;28.63;22.77;;;;;;;3.62;100.00;96982.53;1041031;28;20026;-48
2021/10/27 01:07:50;;;;;;;34.28;24.98;;;;;;;3.63;100.00;96980.78;1041073;28;20022;-49
2021/10/27 01:08:21;;;;;;;41.88;27.83;;;;;;;3.63;100.00;96973.84;1040974;28;20479;-49
2021/10/27 01:08:52;;;;;;;30.13;23.52;;;;;;;3.63;100.00;96978.19;1040744;28;20024;-49
2021/10/27 01:09:22;;;;;;;28.95;22.52;;;;;;;3.66;100.00;96972.91;1040871;28;20025;-48
2021/10/27 01:09:53;;;;;;;32.03;22.95;;;;;;;3.68;100.00;96979.75;1040497;28;20025;-49
2021/10/27 01:10:24;;;;;;;30.58;22.55;;;;;;;3.70;100.00;96985.75;1044735;28;20021;-49
2021/10/27 01:10:55;;;;;;;26.30;19.98;;;;;;;3.74;100.00;96983.09;1045047;28;20645;-49
2021/10/27 01:11:26;;;;;;;28.15;20.83;;;;;;;3.76;100.00;96981.31;1044866;28;20064;-48
2021/10/27 01:11:58;;;;;;;28.00;23.23;;;;;;;3.75;100.00;96974.41;1040420;28;20021;-49
2021/10/27 01:12:30;;;;;;;31.95;21.17;;;;;;;3.75;100.00;96983.03;1040575;28;20339;-49
2021/10/27 01:13:01;;;;;;;30.73;21.88;;;;;;;3.77;100.00;96977.81;1040283;28;20348;-48
2021/10/27 01:13:32;;;;;;;30.08;23.35;;;;;;;3.75;100.00;96972.66;1040679;28;20318;-49
2021/10/27 01:14:06;;;;;;;32.92;22.90;;;;;;;3.73;100.00;96973.59;1044812;28;20256;-49
2021/10/27 01:14:42;;;;;;;30.65;22.30;;;;;;;3.75;100.00;96974.41;1044800;28;20814;-48
2021/10/27 01:15:13;;;;;;;32.92;23.30;;;;;;;3.74;100.00;96970.13;1044922;28;20271;-48
2021/10/27 01:15:43;;;;;;;31.98;22.85;;;;;;;3.70;100.00;96970.19;1043549;28;20625;-52
2021/10/27 01:16:14;;;;;;;37.95;25.80;;;;;;;3.66;100.00;96971.19;1040922;28;20039;-51
2021/10/27 01:16:46;;;;;;;36.95;23.45;;;;;;;3.64;100.00;96972.09;1040965;28;20438;-51
2021/10/27 01:17:17;;;;;;;37.08;24.10;;;;;;;3.65;100.00;96977.25;1041025;28;20056;-51
2021/10/27 01:17:48;;;;;;;34.35;23.00;;;;;;;3.64;100.00;96980.75;1041051;28;20260;-52
2021/10/27 01:18:19;;;;;;;40.35;25.85;;;;;;;3.64;100.00;96972.09;1040981;28;20272;-51
2021/10/27 01:18:53;;;;;;;37.10;24.23;;;;;;;3.63;100.00;96973.00;1040998;28;20259;-51
2021/10/27 01:19:24;;;;;;;202.93;50.70;;;;;;;3.61;100.00;96974.78;1040854;28;20025;-51
2021/10/27 01:19:56;;;;;;;72.50;33.28;;;;;;;3.59;100.00;96977.41;1041098;28;20260;-50
2021/10/27 01:20:27;;;;;;;43.58;26.08;;;;;;;3.61;100.00;96975.63;1040816;28;20017;-51
2021/10/27 01:20:58;;;;;;;42.53;26.45;;;;;;;3.61;100.00;96979.97;1040888;28;20649;-52
2021/10/27 01:21:31;;;;;;;56.35;28.98;;;;;;;3.60;100.00;96980.84;1040842;28;20029;-52
2021/10/27 01:22:03;;;;;;;80.55;35.65;;;;;;;3.60;100.00;96973.91;1040665;28;20065;-52
2021/10/27 01:22:36;;;;;;;52.55;31.08;;;;;;;3.59;100.00;96982.59;1040868;28;20260;-51
2021/10/27 01:23:06;;;;;;;31.52;24.73;;;;;;;3.59;100.00;96976.56;1040658;28;20317;-51
2021/10/27 01:23:37;;;;;;;36.00;25.65;;;;;;;3.59;100.00;96973.97;1040759;28;20295;-51
2021/10/27 01:24:08;;;;;;;49.25;29.70;;;;;;;3.61;100.00;96974.78;1040867;28;20089;-51
2021/10/27 01:24:39;;;;;;;42.08;26.85;;;;;;;3.59;100.00;96972.22;1040755;28;20540;-51
2021/10/27 01:25:10;;;;;;;43.90;28.40;;;;;;;3.61;100.00;96977.38;1040869;28;20104;-52
2021/10/27 01:25:41;;;;;;;50.08;29.63;;;;;;;3.59;100.00;96974.81;1041151;28;20096;-51
2021/10/27 01:26:12;;;;;;;45.80;29.25;;;;;;;3.58;100.00;96974.84;1040689;28;20268;-52
2021/10/27 01:26:43;;;;;;;40.72;27.45;;;;;;;3.55;100.00;96970.59;1040940;28;20256;-52
2021/10/27 01:27:14;;;;;;;50.90;29.50;;;;;;;3.55;100.00;96970.59;1040856;28;20033;-51
2021/10/27 01:27:46;;;;;;;43.92;27.70;;;;;;;3.54;100.00;96971.47;1040920;28;20070;-51
2021/10/27 01:28:17;;;;;;;48.38;28.33;;;;;;;3.52;100.00;96973.25;1040827;28;20022;-52
2021/10/27 01:28:48;;;;;;;63.55;35.05;;;;;;;3.47;100.00;96975.13;1040990;28;20264;-51
2021/10/27 01:29:18;;;;;;;83.40;36.25;;;;;;;3.45;100.00;96970.00;1040892;28;20630;-52
2021/10/27 01:29:49;;;;;;;125.57;34.22;;;;;;;3.45;100.00;96969.13;1040846;28;20017;-51
2021/10/27 01:30:21;;;;;;;186.40;50.53;;;;;;;3.42;100.00;96975.25;1041056;28;20025;-51
2021/10/27 01:30:52;;;;;;;59.90;32.13;;;;;;;3.43;100.00;96971.75;1040818;28;20097;-50
2021/10/27 01:31:23;;;;;;;41.78;27.13;;;;;;;3.42;100.00;96975.25;1040923;28;20267;-54
2021/10/27 01:31:54;;;;;;;44.10;28.63;;;;;;;3.42;100.00;96971.81;1040933;28;20099;-51
2021/10/27 01:32:30;;;;;;;40.67;27.42;;;;;;;3.39;100.00;96975.31;1040756;28;20017;-52
2021/10/27 01:33:01;;;;;;;37.88;23.85;;;;;;;3.41;100.00;96975.28;1040418;28;20022;-51
2021/10/27 01:33:32;;;;;;;44.05;26.83;;;;;;;3.41;100.00;96976.13;1040894;28;20252;-51
2021/10/27 01:34:03;;;;;;;39.38;27.15;;;;;;;3.40;100.00;96969.25;1040974;28;20387;-51
2021/10/27 01:34:35;;;;;;;34.78;24.30;;;;;;;3.41;100.00;96972.69;1040699;28;20737;-51
2021/10/27 01:35:06;;;;;;;43.90;29.13;;;;;;;3.39;100.00;96971.88;1040838;28;20270;-51
2021/10/27 01:35:38;;;;;;;52.60;30.08;;;;;;;3.39;100.00;96974.47;1040926;28;20335;-51
2021/10/27 01:36:10;;;;;;;36.75;25.30;;;;;;;3.37;100.00;96973.66;1040855;28;20844;-51
2021/10/27 01:36:41;;;;;;;40.90;26.90;;;;;;;3.37;100.00;96969.31;1040875;28;20803;-52
2021/10/27 01:37:12;;;;;;;42.72;27.45;;;;;;;3.38;100.00;96973.63;1040780;28;20271;-50
2021/10/27 01:37:43;;;;;;;46.80;29.35;;;;;;;3.36;100.00;96971.94;1041005;28;20021;-50
2021/10/27 01:38:14;;;;;;;41.35;26.83;;;;;;;3.36;100.00;96974.53;1040683;28;20025;-51
2021/10/27 01:38:46;;;;;;;41.33;27.50;;;;;;;3.35;100.00;96965.94;1040732;28;20264;-50
2021/10/27 01:39:17;;;;;;;40.17;26.60;;;;;;;3.36;100.00;96975.41;1040761;28;20029;-52
2021/10/27 01:39:48;;;;;;;38.08;26.50;;;;;;;3.35;100.00;96970.25;1040618;28;20275;-50
2021/10/27 01:40:19;;;;;;;42.03;28.35;;;;;;;3.32;100.00;96978.94;1040713;28;20025;-51
2021/10/27 01:40:49;;;;;;;39.25;27.67;;;;;;;3.34;100.00;96966.84;1040980;28;20021;-51
2021/10/27 01:41:20;;;;;;;40.10;27.67;;;;;;;3.33;100.00;96972.06;1040725;28;20025;-51
2021/10/27 01:41:51;;;;;;;43.70;28.75;;;;;;;3.30;100.00;96968.66;1040800;28;20028;-50
2021/10/27 01:42:22;;;;;;;35.90;25.20;;;;;;;3.34;100.00;96971.13;1040944;28;20528;-51
2021/10/27 01:42:55;;;;;;;40.25;26.73;;;;;;;3.31;100.00;96977.25;1040546;28;20418;-51
2021/10/27 01:43:26;;;;;;;35.80;25.77;;;;;;;3.29;100.00;96971.28;1040665;28;20268;-50
2021/10/27 01:43:57;;;;;;;32.65;24.33;;;;;;;3.29;100.00;96974.69;1040932;28;20256;-50
2021/10/27 01:44:28;;;;;;;40.85;26.55;;;;;;;3.27;100.00;96976.47;1040805;28;20108;-52
2021/10/27 01:44:59;;;;;;;38.17;24.77;;;;;;;3.28;100.00;96969.56;1040217;28;20264;-51
2021/10/27 01:45:30;;;;;;;34.03;23.33;;;;;;;3.28;100.00;96973.03;1040569;28;20051;-52
2021/10/27 01:46:00;;;;;;;34.45;24.00;;;;;;;3.26;100.00;96972.19;1040620;28;20029;-51
2021/10/27 01:46:33;;;;;;;31.27;22.25;;;;;;;3.25;100.00;96972.25;1040708;28;20260;-52
2021/10/27 01:47:04;;;;;;;34.00;24.20;;;;;;;3.23;100.00;96969.69;1044672;28;20024;-50
2021/10/27 01:47:36;;;;;;;32.33;21.88;;;;;;;3.22;100.00;96973.16;1044617;28;20251;-51
2021/10/27 01:48:08;;;;;;;37.40;25.00;;;;;;;3.21;100.00;96970.59;1044074;28;20027;-51
2021/10/27 01:48:39;;;;;;;34.45;23.33;;;;;;;3.20;100.00;96972.34;1040564;28;20272;-51
2021/10/27 01:49:11;;;;;;;50.28;29.15;;;;;;;3.18;100.00;96968.09;1040716;28;20279;-52
2021/10/27 01:49:42;;;;;;;35.95;24.83;;;;;;;3.17;100.00;96969.81;1040543;28;20049;-51
2021/10/27 01:50:13;;;;;;;39.03;27.77;;;;;;;3.18;100.00;96979.28;1040498;28;20599;-50
2021/10/27 01:50:44;;;;;;;37.85;25.98;;;;;;;3.17;100.00;96980.16;1040447;28;20026;-51
2021/10/27 01:51:15;;;;;;;39.88;27.00;;;;;;;3.18;100.00;96975.88;1040536;28;20047;-51
2021/10/27 01:51:45;;;;;;;40.67;26.98;;;;;;;3.18;100.00;96976.72;1044224;28;20337;-52
2021/10/27 01:52:17;;;;;;;31.88;23.05;;;;;;;3.19;100.00;96970.66;1044644;28;20104;-50
2021/10/27 01:52:47;;;;;;;45.15;27.88;;;;;;;3.20;100.00;96972.34;1044399;28;20013;-51
2021/10/27 01:53:18;;;;;;;36.28;25.38;;;;;;;3.18;100.00;96965.50;1044073;28;20330;-51
2021/10/27 01:53:49;;;;;;;45.28;26.73;;;;;;;3.16;100.00;96975.91;1040763;28;20044;-51
2021/10/27 01:54:19;;;;;;;47.50;28.15;;;;;;;3.16;100.00;96975.91;1040913;28;20018;-52
2021/10/27 01:54:50;;;;;;;33.40;23.80;;;;;;;3.14;100.00;96969.91;1040876;28;20013;-52
2021/10/27 01:55:21;;;;;;;37.92;25.52;;;;;;;3.14;100.00;96971.66;1040747;28;20049;-52
2021/10/27 01:55:52;;;;;;;27.85;22.25;;;;;;;3.13;100.00;96975.13;1041001;28;20108;-52
2021/10/27 01:56:23;;;;;;;31.98;24.33;;;;;;;3.11;100.00;96976.00;1040716;28;20468;-51
2021/10/27 01:56:54;;;;;;;43.00;28.10;;;;;;;3.12;100.00;96976.88;1040947;28;20339;-53
2021/10/27 01:57:26;;;;;;;46.78;26.13;;;;;;;3.11;100.00;96981.16;1040886;28;20689;-52
2021/10/27 01:57:57;;;;;;;42.10;26.85;;;;;;;3.11;100.00;96973.41;1040637;28;20339;-51
2021/10/27 01:58:28;;;;;;;41.38;27.23;;;;;;;3.10;100.00;96973.47;1040967;28;20248;-52
2021/10/27 01:59:00;;;;;;;36.78;25.17;;;;;;;3.07;100.00;96976.97;1040882;28;20510;-51
2021/10/27 01:59:31;;;;;;;38.97;26.35;;;;;;;3.08;100.00;96975.25;1040808;28;20022;-52
2021/10/27 02:00:07;;;;;;;42.95;27.67;;;;;;;3.09;100.00;96974.34;1040729;28;20317;-51
2021/10/27 02:00:37;;;;;;;39.00;26.20;;;;;;;3.10;100.00;96976.06;1040922;28;20753;-50
2021/10/27 02:01:08;;;;;;;38.50;26.55;;;;;;;3.07;100.00;96976.13;1040763;28;20252;-51
2021/10/27 02:01:39;;;;;;;44.50;27.25;;;;;;;3.08;100.00;96977.84;1040518;28;20014;-52
2021/10/27 02:02:09;;;;;;;36.63;25.33;;;;;;;3.09;100.00;96976.94;1040447;28;20383;-52
2021/10/27 02:02:40;;;;;;;33.70;22.10;;;;;;;3.07;100.00;96982.13;1040423;28;20086;-51
2021/10/27 02:03:10;;;;;;;36.38;25.48;;;;;;;3.08;100.00;96976.09;1040363;28;20088;-51
2021/10/27 02:03:41;;;;;;;32.80;23.35;;;;;;;3.08;100.00;96976.09;1036569;28;20017;-52
2021/10/27 02:04:14;;;;;;;34.25;23.38;;;;;;;3.07;100.00;96974.38;1040388;28;20124;-51
2021/10/27 02:04:44;;;;;;;41.08;27.00;;;;;;;3.07;100.00;96978.72;1040288;28;20049;-53
2021/10/27 02:05:15;;;;;;;39.78;26.30;;;;;;;3.07;100.00;96984.72;1040199;28;20300;-52
2021/10/27 02:05:46;;;;;;;39.88;26.52;;;;;;;3.07;100.00;96981.28;1040605;28;20026;-50
2021/10/27 02:06:17;;;;;;;39.42;26.50;;;;;;;3.07;100.00;96978.72;1040676;28;20112;-52
2021/10/27 02:06:48;;;;;;;35.63;24.17;;;;;;;3.07;100.00;96974.38;1040747;28;20030;-51
2021/10/27 02:07:18;;;;;;;32.10;22.23;;;;;;;3.07;100.00;96978.72;1040692;28;20274;-51
2021/10/27 02:07:49;;;;;;;30.63;21.23;;;;;;;3.08;100.00;96980.41;1040840;28;20343;-51
2021/10/27 02:08:20;;;;;;;25.52;19.77;;;;;;;3.08;100.00;96976.09;1040774;28;20021;-50
2021/10/27 02:08:51;;;;;;;28.10;20.63;;;;;;;3.10;100.00;96973.47;1040806;28;20463;-52
2021/10/27 02:09:21;;;;;;;29.08;20.95;;;;;;;3.11;100.00;96975.16;1040747;28;20099;-51
2021/10/27 02:09:52;;;;;;;28.05;19.70;;;;;;;3.11;100.00;96973.41;1040890;28;20029;-51
2021/10/27 02:10:23;;;;;;;26.35;19.42;;;;;;;3.13;100.00;96981.13;1040704;28;20107;-52
2021/10/27 02:10:53;;;;;;;29.85;20.70;;;;;;;3.15;100.00;96973.34;1040895;28;20109;-52
2021/10/27 02:11:24;;;;;;;29.15;20.58;;;;;;;3.17;100.00;96976.75;1040685;28;20570;-50
2021/10/27 02:11:55;;;;;;;37.25;24.70;;;;;;;3.13;100.00;96975.97;1040779;28;20032;-51
2021/10/27 02:12:26;;;;;;;39.97;25.02;;;;;;;3.04;100.00;96978.75;1040733;28;20382;-51
2021/10/27 02:12:57;;;;;;;32.70;21.50;;;;;;;3.03;100.00;96980.50;1040464;28;20490;-51
2021/10/27 02:13:28;;;;;;;30.25;21.40;;;;;;;3.02;100.00;96978.84;1040735;28;20256;-51
2021/10/27 02:13:59;;;;;;;35.78;23.40;;;;;;;3.02;100.00;96985.72;1040794;28;20475;-51
2021/10/27 02:14:31;;;;;;;31.27;22.67;;;;;;;3.00;100.00;96983.16;1040398;28;20025;-50
2021/10/27 02:15:03;;;;;;;33.42;23.80;;;;;;;3.00;100.00;96983.16;1040396;28;20268;-51
2021/10/27 02:15:34;;;;;;;33.80;22.48;;;;;;;3.01;100.00;96989.22;1040445;28;20248;-50
2021/10/27 02:16:04;;;;;;;28.23;21.00;;;;;;;3.00;100.00;96982.31;1040692;28;20800;-51
2021/10/27 02:16:35;;;;;;;36.25;24.33;;;;;;;2.98;100.00;96982.34;1040523;28;20021;-51
2021/10/27 02:17:06;;;;;;;30.85;22.60;;;;;;;2.98;100.00;96984.94;1040721;28;20033;-50
2021/10/27 02:17:37;;;;;;;33.42;22.30;;;;;;;2.98;100.00;96984.09;1040639;28;20060;-51
2021/10/27 02:18:08;;;;;;;29.92;21.58;;;;;;;2.98;100.00;96982.34;1040908;28;20051;-50
2021/10/27 02:18:38;;;;;;;30.23;20.50;;;;;;;2.99;100.00;96985.81;1040620;28;20310;-52
2021/10/27 02:19:09;;;;;;;37.28;24.10;;;;;;;2.95;100.00;96982.44;1040726;28;20017;-52
2021/10/27 02:19:41;;;;;;;37.22;23.38;;;;;;;2.97;100.00;96985.00;1040896;28;20033;-51
2021/10/27 02:20:11;;;;;;;32.83;23.30;;;;;;;2.97;100.00;96985.84;1040731;28;20263;-52
2021/10/27 02:20:42;;;;;;;27.88;21.42;;;;;;;2.97;100.00;96977.25;1040556;28;20025;-51
2021/10/27 02:21:13;;;;;;;33.38;23.05;;;;;;;2.96;100.00;96984.13;1040721;28;20630;-52
2021/10/27 02:21:44;;;;;;;34.30;23.25;;;;;;;2.97;100.00;96985.00;1040539;28;20032;-51
2021/10/27 02:22:14;;;;;;;31.23;22.30;;;;;;;2.98;100.00;96981.50;1040824;28;20021;-50
2021/10/27 02:22:45;;;;;;;30.98;22.02;;;;;;;2.85;100.00;96961.09;1040374;28;20432;-51